sensor_id;sensor_type;location;lat;lon;timestamp;P1;durP1;ratioP1;P2;durP2;ratioP2
75320;SDS011;63920;52.130;5.584;2022-10-31T00:00:16;16.05;;;9.50;;
75320;SDS011;63920;52.130;5.584;2022-10-31T00:02:42;14.93;;;9.70;;
75320;SDS011;63920;52.130;5.584;2022-10-31T00:05:08;15.18;;;9.75;;
75320;SDS011;63920;52.130;5.584;2022-10-31T00:07:33;15.68;;;8.98;;
75320;SDS011;63920;52.130;5.584;2022-10-31T00:09:59;16.67;;;9.68;;
75320;SDS011;63920;52.130;5.584;2022-10-31T00:12:25;14.27;;;8.77;;
75320;SDS011;63920;52.130;5.584;2022-10-31T00:14:51;13.20;;;9.45;;
75320;SDS011;63920;52.130;5.584;2022-10-31T00:17:16;17.50;;;9.05;;
75320;SDS011;63920;52.130;5.584;2022-10-31T00:19:42;13.68;;;9.23;;
75320;SDS011;63920;52.130;5.584;2022-10-31T00:22:08;15.52;;;9.65;;
75320;SDS011;63920;52.130;5.584;2022-10-31T00:24:33;15.80;;;9.60;;
75320;SDS011;63920;52.130;5.584;2022-10-31T00:26:59;14.77;;;8.93;;
75320;SDS011;63920;52.130;5.584;2022-10-31T00:29:24;15.35;;;9.43;;
75320;SDS011;63920;52.130;5.584;2022-10-31T00:31:50;13.85;;;7.90;;
75320;SDS011;63920;52.130;5.584;2022-10-31T00:34:17;12.82;;;9.20;;
75320;SDS011;63920;52.130;5.584;2022-10-31T00:36:42;14.35;;;9.13;;
75320;SDS011;63920;52.130;5.584;2022-10-31T00:39:08;17.05;;;9.20;;
75320;SDS011;63920;52.130;5.584;2022-10-31T00:41:33;17.50;;;9.63;;
75320;SDS011;63920;52.130;5.584;2022-10-31T00:43:59;19.48;;;9.95;;
75320;SDS011;63920;52.130;5.584;2022-10-31T00:46:24;12.27;;;9.40;;
75320;SDS011;63920;52.130;5.584;2022-10-31T00:48:50;14.18;;;9.52;;
75320;SDS011;63920;52.130;5.584;2022-10-31T00:51:15;13.68;;;9.40;;
75320;SDS011;63920;52.130;5.584;2022-10-31T00:53:41;12.82;;;9.05;;
75320;SDS011;63920;52.130;5.584;2022-10-31T00:56:06;17.48;;;9.90;;
75320;SDS011;63920;52.130;5.584;2022-10-31T00:58:32;11.45;;;8.77;;
75320;SDS011;63920;52.130;5.584;2022-10-31T01:00:58;14.88;;;9.80;;
75320;SDS011;63920;52.130;5.584;2022-10-31T01:03:24;16.73;;;9.43;;
75320;SDS011;63920;52.130;5.584;2022-10-31T01:05:58;13.50;;;8.95;;
75320;SDS011;63920;52.130;5.584;2022-10-31T01:08:26;13.75;;;9.50;;
75320;SDS011;63920;52.130;5.584;2022-10-31T01:10:59;15.10;;;9.80;;
75320;SDS011;63920;52.130;5.584;2022-10-31T01:13:27;11.95;;;9.20;;
75320;SDS011;63920;52.130;5.584;2022-10-31T01:15:54;17.83;;;9.63;;
75320;SDS011;63920;52.130;5.584;2022-10-31T01:18:20;12.02;;;9.45;;
75320;SDS011;63920;52.130;5.584;2022-10-31T01:20:46;15.00;;;9.90;;
75320;SDS011;63920;52.130;5.584;2022-10-31T01:23:12;13.68;;;8.95;;
75320;SDS011;63920;52.130;5.584;2022-10-31T01:25:37;20.13;;;12.93;;
75320;SDS011;63920;52.130;5.584;2022-10-31T01:28:03;13.77;;;9.88;;
75320;SDS011;63920;52.130;5.584;2022-10-31T01:30:28;17.73;;;9.98;;
75320;SDS011;63920;52.130;5.584;2022-10-31T01:32:54;15.30;;;10.13;;
75320;SDS011;63920;52.130;5.584;2022-10-31T01:35:20;16.23;;;10.40;;
75320;SDS011;63920;52.130;5.584;2022-10-31T01:37:45;12.73;;;9.27;;
75320;SDS011;63920;52.130;5.584;2022-10-31T01:40:11;16.85;;;10.00;;
75320;SDS011;63920;52.130;5.584;2022-10-31T01:42:36;13.23;;;8.85;;
75320;SDS011;63920;52.130;5.584;2022-10-31T01:45:02;15.25;;;10.68;;
75320;SDS011;63920;52.130;5.584;2022-10-31T01:47:39;10.63;;;8.95;;
75320;SDS011;63920;52.130;5.584;2022-10-31T01:50:11;15.80;;;10.32;;
75320;SDS011;63920;52.130;5.584;2022-10-31T01:52:44;16.23;;;9.23;;
75320;SDS011;63920;52.130;5.584;2022-10-31T01:55:15;14.57;;;9.85;;
75320;SDS011;63920;52.130;5.584;2022-10-31T01:57:45;13.88;;;9.15;;
75320;SDS011;63920;52.130;5.584;2022-10-31T02:00:13;12.30;;;9.25;;
75320;SDS011;63920;52.130;5.584;2022-10-31T02:02:39;17.95;;;9.77;;
75320;SDS011;63920;52.130;5.584;2022-10-31T02:05:06;13.27;;;8.45;;
75320;SDS011;63920;52.130;5.584;2022-10-31T02:07:40;12.70;;;8.98;;
75320;SDS011;63920;52.130;5.584;2022-10-31T02:10:15;9.13;;;7.53;;
75320;SDS011;63920;52.130;5.584;2022-10-31T02:12:41;10.05;;;8.98;;
75320;SDS011;63920;52.130;5.584;2022-10-31T02:15:09;11.35;;;7.95;;
75320;SDS011;63920;52.130;5.584;2022-10-31T02:17:34;13.15;;;8.80;;
75320;SDS011;63920;52.130;5.584;2022-10-31T02:22:53;13.98;;;9.10;;
75320;SDS011;63920;52.130;5.584;2022-10-31T02:33:59;15.80;;;9.35;;
75320;SDS011;63920;52.130;5.584;2022-10-31T02:47:06;15.02;;;9.45;;
75320;SDS011;63920;52.130;5.584;2022-10-31T02:49:48;10.95;;;8.60;;
75320;SDS011;63920;52.130;5.584;2022-10-31T02:52:24;12.90;;;10.02;;
75320;SDS011;63920;52.130;5.584;2022-10-31T02:54:51;14.68;;;9.27;;
75320;SDS011;63920;52.130;5.584;2022-10-31T02:57:17;14.95;;;10.00;;
75320;SDS011;63920;52.130;5.584;2022-10-31T02:59:50;16.50;;;10.77;;
75320;SDS011;63920;52.130;5.584;2022-10-31T03:13:12;14.75;;;9.75;;
75320;SDS011;63920;52.130;5.584;2022-10-31T03:15:54;14.18;;;9.27;;
75320;SDS011;63920;52.130;5.584;2022-10-31T03:18:33;11.30;;;9.35;;
75320;SDS011;63920;52.130;5.584;2022-10-31T03:21:08;12.82;;;9.88;;
75320;SDS011;63920;52.130;5.584;2022-10-31T03:23:51;15.20;;;10.43;;
75320;SDS011;63920;52.130;5.584;2022-10-31T03:26:19;14.70;;;9.60;;
75320;SDS011;63920;52.130;5.584;2022-10-31T03:28:48;11.80;;;9.43;;
75320;SDS011;63920;52.130;5.584;2022-10-31T03:31:17;12.75;;;9.10;;
75320;SDS011;63920;52.130;5.584;2022-10-31T03:33:48;10.40;;;8.52;;
75320;SDS011;63920;52.130;5.584;2022-10-31T03:36:15;13.55;;;9.95;;
75320;SDS011;63920;52.130;5.584;2022-10-31T03:38:42;11.38;;;8.70;;
75320;SDS011;63920;52.130;5.584;2022-10-31T03:41:11;12.70;;;10.30;;
75320;SDS011;63920;52.130;5.584;2022-10-31T03:43:44;15.30;;;9.38;;
75320;SDS011;63920;52.130;5.584;2022-10-31T03:46:17;11.02;;;8.68;;
75320;SDS011;63920;52.130;5.584;2022-10-31T03:48:43;11.57;;;9.18;;
75320;SDS011;63920;52.130;5.584;2022-10-31T03:57:43;14.13;;;9.85;;
75320;SDS011;63920;52.130;5.584;2022-10-31T03:59:55;11.95;;;9.30;;
75320;SDS011;63920;52.130;5.584;2022-10-31T04:02:28;10.93;;;9.52;;
75320;SDS011;63920;52.130;5.584;2022-10-31T04:04:57;12.25;;;10.27;;
75320;SDS011;63920;52.130;5.584;2022-10-31T04:07:25;13.23;;;9.63;;
75320;SDS011;63920;52.130;5.584;2022-10-31T04:09:55;10.18;;;9.02;;
75320;SDS011;63920;52.130;5.584;2022-10-31T04:12:22;12.13;;;9.95;;
75320;SDS011;63920;52.130;5.584;2022-10-31T04:14:50;9.95;;;8.75;;
75320;SDS011;63920;52.130;5.584;2022-10-31T04:17:18;12.27;;;9.15;;
75320;SDS011;63920;52.130;5.584;2022-10-31T04:19:48;13.95;;;9.25;;
75320;SDS011;63920;52.130;5.584;2022-10-31T04:22:13;12.55;;;9.38;;
75320;SDS011;63920;52.130;5.584;2022-10-31T04:24:39;12.70;;;8.90;;
75320;SDS011;63920;52.130;5.584;2022-10-31T04:27:05;12.77;;;9.63;;
75320;SDS011;63920;52.130;5.584;2022-10-31T04:29:31;13.93;;;9.93;;
75320;SDS011;63920;52.130;5.584;2022-10-31T04:31:57;15.80;;;9.35;;
75320;SDS011;63920;52.130;5.584;2022-10-31T04:34:22;11.65;;;8.65;;
75320;SDS011;63920;52.130;5.584;2022-10-31T04:36:48;10.38;;;8.98;;
75320;SDS011;63920;52.130;5.584;2022-10-31T04:39:14;11.77;;;9.02;;
75320;SDS011;63920;52.130;5.584;2022-10-31T04:41:40;9.63;;;8.63;;
75320;SDS011;63920;52.130;5.584;2022-10-31T04:44:06;9.52;;;8.07;;
75320;SDS011;63920;52.130;5.584;2022-10-31T04:46:31;11.57;;;9.55;;
75320;SDS011;63920;52.130;5.584;2022-10-31T04:48:57;11.85;;;9.07;;
75320;SDS011;63920;52.130;5.584;2022-10-31T04:51:22;11.60;;;8.07;;
75320;SDS011;63920;52.130;5.584;2022-10-31T04:53:48;11.18;;;8.85;;
75320;SDS011;63920;52.130;5.584;2022-10-31T04:56:13;12.32;;;8.88;;
75320;SDS011;63920;52.130;5.584;2022-10-31T04:58:39;10.35;;;8.65;;
75320;SDS011;63920;52.130;5.584;2022-10-31T05:01:04;12.88;;;9.25;;
75320;SDS011;63920;52.130;5.584;2022-10-31T05:03:30;12.30;;;9.20;;
75320;SDS011;63920;52.130;5.584;2022-10-31T05:05:56;10.88;;;8.35;;
75320;SDS011;63920;52.130;5.584;2022-10-31T05:08:21;11.18;;;8.60;;
75320;SDS011;63920;52.130;5.584;2022-10-31T05:10:47;10.35;;;9.25;;
75320;SDS011;63920;52.130;5.584;2022-10-31T05:13:12;10.15;;;9.07;;
75320;SDS011;63920;52.130;5.584;2022-10-31T05:15:39;16.38;;;9.75;;
75320;SDS011;63920;52.130;5.584;2022-10-31T05:18:05;14.07;;;9.25;;
75320;SDS011;63920;52.130;5.584;2022-10-31T05:20:31;14.18;;;9.32;;
75320;SDS011;63920;52.130;5.584;2022-10-31T05:22:57;11.30;;;9.52;;
75320;SDS011;63920;52.130;5.584;2022-10-31T05:25:24;11.35;;;9.40;;
75320;SDS011;63920;52.130;5.584;2022-10-31T05:27:51;15.32;;;9.77;;
75320;SDS011;63920;52.130;5.584;2022-10-31T05:30:19;15.10;;;9.82;;
75320;SDS011;63920;52.130;5.584;2022-10-31T05:32:47;11.07;;;9.57;;
75320;SDS011;63920;52.130;5.584;2022-10-31T05:35:15;12.38;;;9.52;;
75320;SDS011;63920;52.130;5.584;2022-10-31T05:37:42;13.77;;;10.02;;
75320;SDS011;63920;52.130;5.584;2022-10-31T05:40:09;12.75;;;10.32;;
75320;SDS011;63920;52.130;5.584;2022-10-31T05:42:37;13.13;;;9.40;;
75320;SDS011;63920;52.130;5.584;2022-10-31T05:45:03;14.30;;;10.38;;
75320;SDS011;63920;52.130;5.584;2022-10-31T05:47:29;9.18;;;7.63;;
75320;SDS011;63920;52.130;5.584;2022-10-31T05:49:55;11.27;;;8.45;;
75320;SDS011;63920;52.130;5.584;2022-10-31T05:52:20;11.05;;;9.82;;
75320;SDS011;63920;52.130;5.584;2022-10-31T05:54:46;16.58;;;10.40;;
75320;SDS011;63920;52.130;5.584;2022-10-31T05:57:11;12.80;;;9.63;;
75320;SDS011;63920;52.130;5.584;2022-10-31T05:59:37;10.40;;;9.27;;
75320;SDS011;63920;52.130;5.584;2022-10-31T06:02:02;11.15;;;9.32;;
75320;SDS011;63920;52.130;5.584;2022-10-31T06:04:28;13.10;;;10.00;;
75320;SDS011;63920;52.130;5.584;2022-10-31T06:06:54;13.20;;;10.25;;
75320;SDS011;63920;52.130;5.584;2022-10-31T06:09:19;12.38;;;10.20;;
75320;SDS011;63920;52.130;5.584;2022-10-31T06:11:45;11.15;;;9.93;;
75320;SDS011;63920;52.130;5.584;2022-10-31T06:14:10;12.68;;;9.57;;
75320;SDS011;63920;52.130;5.584;2022-10-31T06:16:36;12.45;;;10.27;;
75320;SDS011;63920;52.130;5.584;2022-10-31T06:19:01;13.55;;;10.65;;
75320;SDS011;63920;52.130;5.584;2022-10-31T06:21:27;14.55;;;9.40;;
75320;SDS011;63920;52.130;5.584;2022-10-31T06:23:52;13.48;;;10.23;;
75320;SDS011;63920;52.130;5.584;2022-10-31T06:26:18;12.90;;;10.38;;
75320;SDS011;63920;52.130;5.584;2022-10-31T06:28:43;14.98;;;9.68;;
75320;SDS011;63920;52.130;5.584;2022-10-31T06:31:09;14.80;;;10.77;;
75320;SDS011;63920;52.130;5.584;2022-10-31T06:33:34;12.13;;;9.95;;
75320;SDS011;63920;52.130;5.584;2022-10-31T06:36:00;14.68;;;10.48;;
75320;SDS011;63920;52.130;5.584;2022-10-31T06:38:26;14.63;;;11.30;;
75320;SDS011;63920;52.130;5.584;2022-10-31T06:40:52;16.30;;;11.13;;
75320;SDS011;63920;52.130;5.584;2022-10-31T06:43:18;14.57;;;10.50;;
75320;SDS011;63920;52.130;5.584;2022-10-31T06:45:44;12.65;;;11.23;;
75320;SDS011;63920;52.130;5.584;2022-10-31T06:48:10;17.65;;;12.02;;
75320;SDS011;63920;52.130;5.584;2022-10-31T06:50:35;19.33;;;12.02;;
75320;SDS011;63920;52.130;5.584;2022-10-31T06:53:01;16.38;;;12.45;;
75320;SDS011;63920;52.130;5.584;2022-10-31T06:55:27;15.98;;;12.15;;
75320;SDS011;63920;52.130;5.584;2022-10-31T06:57:53;21.35;;;13.63;;
75320;SDS011;63920;52.130;5.584;2022-10-31T07:00:20;22.15;;;14.27;;
75320;SDS011;63920;52.130;5.584;2022-10-31T07:02:59;16.70;;;14.00;;
75320;SDS011;63920;52.130;5.584;2022-10-31T07:05:26;20.75;;;14.57;;
75320;SDS011;63920;52.130;5.584;2022-10-31T07:07:56;25.95;;;14.27;;
75320;SDS011;63920;52.130;5.584;2022-10-31T07:10:27;19.48;;;13.63;;
75320;SDS011;63920;52.130;5.584;2022-10-31T07:12:58;20.60;;;13.57;;
75320;SDS011;63920;52.130;5.584;2022-10-31T07:15:25;17.60;;;13.32;;
75320;SDS011;63920;52.130;5.584;2022-10-31T07:17:52;15.50;;;12.70;;
75320;SDS011;63920;52.130;5.584;2022-10-31T07:20:18;16.38;;;13.05;;
75320;SDS011;63920;52.130;5.584;2022-10-31T07:22:44;19.05;;;13.57;;
75320;SDS011;63920;52.130;5.584;2022-10-31T07:25:10;17.15;;;13.18;;
75320;SDS011;63920;52.130;5.584;2022-10-31T07:27:37;18.23;;;13.05;;
75320;SDS011;63920;52.130;5.584;2022-10-31T07:30:03;18.60;;;13.32;;
75320;SDS011;63920;52.130;5.584;2022-10-31T07:32:39;17.52;;;12.88;;
75320;SDS011;63920;52.130;5.584;2022-10-31T07:35:13;22.15;;;13.07;;
75320;SDS011;63920;52.130;5.584;2022-10-31T07:37:40;16.65;;;12.65;;
75320;SDS011;63920;52.130;5.584;2022-10-31T07:40:06;23.58;;;14.45;;
75320;SDS011;63920;52.130;5.584;2022-10-31T07:42:36;20.90;;;14.18;;
75320;SDS011;63920;52.130;5.584;2022-10-31T07:45:10;21.05;;;15.07;;
75320;SDS011;63920;52.130;5.584;2022-10-31T07:50:10;18.27;;;13.75;;
75320;SDS011;63920;52.130;5.584;2022-10-31T07:52:37;22.83;;;15.10;;
75320;SDS011;63920;52.130;5.584;2022-10-31T07:55:03;24.58;;;14.77;;
75320;SDS011;63920;52.130;5.584;2022-10-31T07:57:30;22.90;;;14.65;;
75320;SDS011;63920;52.130;5.584;2022-10-31T07:59:56;23.08;;;14.82;;
75320;SDS011;63920;52.130;5.584;2022-10-31T08:02:21;19.02;;;14.77;;
75320;SDS011;63920;52.130;5.584;2022-10-31T08:04:47;20.58;;;15.85;;
75320;SDS011;63920;52.130;5.584;2022-10-31T08:07:13;21.98;;;15.40;;
75320;SDS011;63920;52.130;5.584;2022-10-31T08:09:39;21.17;;;15.73;;
75320;SDS011;63920;52.130;5.584;2022-10-31T08:12:05;21.42;;;15.20;;
75320;SDS011;63920;52.130;5.584;2022-10-31T08:14:30;25.35;;;15.88;;
75320;SDS011;63920;52.130;5.584;2022-10-31T08:16:56;23.33;;;16.80;;
75320;SDS011;63920;52.130;5.584;2022-10-31T08:19:21;26.77;;;17.40;;
75320;SDS011;63920;52.130;5.584;2022-10-31T08:21:50;23.92;;;16.92;;
75320;SDS011;63920;52.130;5.584;2022-10-31T08:24:16;29.23;;;17.55;;
75320;SDS011;63920;52.130;5.584;2022-10-31T08:26:42;22.45;;;16.23;;
75320;SDS011;63920;52.130;5.584;2022-10-31T08:29:07;22.73;;;17.20;;
75320;SDS011;63920;52.130;5.584;2022-10-31T08:31:33;25.77;;;16.50;;
75320;SDS011;63920;52.130;5.584;2022-10-31T08:33:59;27.17;;;16.55;;
75320;SDS011;63920;52.130;5.584;2022-10-31T08:36:24;26.67;;;17.88;;
75320;SDS011;63920;52.130;5.584;2022-10-31T08:38:50;29.38;;;18.95;;
75320;SDS011;63920;52.130;5.584;2022-10-31T08:41:15;26.45;;;19.80;;
75320;SDS011;63920;52.130;5.584;2022-10-31T08:43:41;26.75;;;18.23;;
75320;SDS011;63920;52.130;5.584;2022-10-31T08:46:06;26.05;;;17.85;;
75320;SDS011;63920;52.130;5.584;2022-10-31T08:48:32;28.10;;;19.45;;
75320;SDS011;63920;52.130;5.584;2022-10-31T08:50:58;25.42;;;18.27;;
75320;SDS011;63920;52.130;5.584;2022-10-31T08:53:24;25.05;;;18.92;;
75320;SDS011;63920;52.130;5.584;2022-10-31T08:55:50;27.27;;;19.75;;
75320;SDS011;63920;52.130;5.584;2022-10-31T08:58:19;27.92;;;20.30;;
75320;SDS011;63920;52.130;5.584;2022-10-31T09:00:46;27.15;;;20.17;;
75320;SDS011;63920;52.130;5.584;2022-10-31T09:03:17;25.95;;;18.95;;
75320;SDS011;63920;52.130;5.584;2022-10-31T09:05:47;29.88;;;20.45;;
75320;SDS011;63920;52.130;5.584;2022-10-31T09:08:13;27.88;;;20.33;;
75320;SDS011;63920;52.130;5.584;2022-10-31T09:10:39;30.95;;;22.65;;
75320;SDS011;63920;52.130;5.584;2022-10-31T09:13:06;27.70;;;20.45;;
75320;SDS011;63920;52.130;5.584;2022-10-31T09:15:34;27.80;;;20.38;;
75320;SDS011;63920;52.130;5.584;2022-10-31T09:18:03;31.30;;;21.08;;
75320;SDS011;63920;52.130;5.584;2022-10-31T09:20:30;34.13;;;21.98;;
75320;SDS011;63920;52.130;5.584;2022-10-31T09:23:00;27.80;;;20.70;;
75320;SDS011;63920;52.130;5.584;2022-10-31T09:25:28;34.40;;;22.35;;
75320;SDS011;63920;52.130;5.584;2022-10-31T09:27:57;30.30;;;22.98;;
75320;SDS011;63920;52.130;5.584;2022-10-31T09:30:24;32.08;;;22.00;;
75320;SDS011;63920;52.130;5.584;2022-10-31T09:32:57;29.50;;;21.33;;
75320;SDS011;63920;52.130;5.584;2022-10-31T09:35:30;29.35;;;20.05;;
75320;SDS011;63920;52.130;5.584;2022-10-31T09:38:10;31.40;;;22.15;;
75320;SDS011;63920;52.130;5.584;2022-10-31T09:40:46;32.38;;;22.13;;
75320;SDS011;63920;52.130;5.584;2022-10-31T09:43:30;26.55;;;20.50;;
75320;SDS011;63920;52.130;5.584;2022-10-31T09:46:03;26.88;;;18.73;;
75320;SDS011;63920;52.130;5.584;2022-10-31T09:51:47;24.40;;;17.13;;
75320;SDS011;63920;52.130;5.584;2022-10-31T09:54:21;28.23;;;15.50;;
75320;SDS011;63920;52.130;5.584;2022-10-31T09:56:59;21.63;;;13.68;;
75320;SDS011;63920;52.130;5.584;2022-10-31T09:59:28;18.95;;;14.23;;
75320;SDS011;63920;52.130;5.584;2022-10-31T10:02:18;20.42;;;12.98;;
75320;SDS011;63920;52.130;5.584;2022-10-31T10:04:58;22.58;;;13.95;;
75320;SDS011;63920;52.130;5.584;2022-10-31T10:07:30;22.27;;;12.45;;
75320;SDS011;63920;52.130;5.584;2022-10-31T10:09:59;20.70;;;12.77;;
75320;SDS011;63920;52.130;5.584;2022-10-31T10:12:40;16.80;;;12.82;;
75320;SDS011;63920;52.130;5.584;2022-10-31T10:20:49;18.67;;;13.13;;
75320;SDS011;63920;52.130;5.584;2022-10-31T10:23:43;17.73;;;12.57;;
75320;SDS011;63920;52.130;5.584;2022-10-31T10:26:18;17.88;;;12.70;;
75320;SDS011;63920;52.130;5.584;2022-10-31T10:29:12;19.88;;;12.20;;
75320;SDS011;63920;52.130;5.584;2022-10-31T10:31:52;22.88;;;12.98;;
75320;SDS011;63920;52.130;5.584;2022-10-31T10:34:27;20.33;;;12.80;;
75320;SDS011;63920;52.130;5.584;2022-10-31T10:37:00;22.27;;;12.68;;
75320;SDS011;63920;52.130;5.584;2022-10-31T10:39:40;19.83;;;12.95;;
75320;SDS011;63920;52.130;5.584;2022-10-31T10:42:13;19.95;;;12.75;;
75320;SDS011;63920;52.130;5.584;2022-10-31T10:44:59;26.08;;;15.68;;
75320;SDS011;63920;52.130;5.584;2022-10-31T10:47:44;25.27;;;15.35;;
75320;SDS011;63920;52.130;5.584;2022-10-31T10:50:20;25.70;;;16.15;;
75320;SDS011;63920;52.130;5.584;2022-10-31T10:55:36;29.25;;;17.10;;
75320;SDS011;63920;52.130;5.584;2022-10-31T10:58:10;28.67;;;16.63;;
75320;SDS011;63920;52.130;5.584;2022-10-31T11:00:38;27.75;;;17.65;;
75320;SDS011;63920;52.130;5.584;2022-10-31T11:03:08;30.45;;;17.83;;
75320;SDS011;63920;52.130;5.584;2022-10-31T11:08:07;26.10;;;17.48;;
75320;SDS011;63920;52.130;5.584;2022-10-31T11:10:33;31.10;;;18.73;;
75320;SDS011;63920;52.130;5.584;2022-10-31T11:13:17;32.13;;;19.10;;
75320;SDS011;63920;52.130;5.584;2022-10-31T11:18:46;30.58;;;17.58;;
75320;SDS011;63920;52.130;5.584;2022-10-31T11:21:28;29.55;;;17.20;;
75320;SDS011;63920;52.130;5.584;2022-10-31T11:24:11;33.08;;;17.33;;
75320;SDS011;63920;52.130;5.584;2022-10-31T11:26:43;29.15;;;16.58;;
75320;SDS011;63920;52.130;5.584;2022-10-31T11:29:15;28.40;;;17.50;;
75320;SDS011;63920;52.130;5.584;2022-10-31T11:31:50;36.53;;;20.00;;
75320;SDS011;63920;52.130;5.584;2022-10-31T11:34:21;33.08;;;18.38;;
75320;SDS011;63920;52.130;5.584;2022-10-31T11:37:42;30.73;;;19.35;;
75320;SDS011;63920;52.130;5.584;2022-10-31T11:39:50;33.58;;;18.17;;
75320;SDS011;63920;52.130;5.584;2022-10-31T11:42:34;30.45;;;16.95;;
75320;SDS011;63920;52.130;5.584;2022-10-31T11:47:47;31.77;;;17.13;;
75320;SDS011;63920;52.130;5.584;2022-10-31T11:50:22;29.45;;;16.27;;
75320;SDS011;63920;52.130;5.584;2022-10-31T11:52:59;29.23;;;16.45;;
75320;SDS011;63920;52.130;5.584;2022-10-31T11:55:36;22.90;;;16.50;;
75320;SDS011;63920;52.130;5.584;2022-10-31T11:58:03;26.38;;;17.63;;
75320;SDS011;63920;52.130;5.584;2022-10-31T12:00:31;28.77;;;16.50;;
75320;SDS011;63920;52.130;5.584;2022-10-31T12:08:35;28.10;;;16.77;;
75320;SDS011;63920;52.130;5.584;2022-10-31T12:13:49;28.48;;;16.63;;
75320;SDS011;63920;52.130;5.584;2022-10-31T12:16:31;32.50;;;19.35;;
75320;SDS011;63920;52.130;5.584;2022-10-31T12:19:27;34.50;;;19.70;;
75320;SDS011;63920;52.130;5.584;2022-10-31T12:22:12;31.98;;;19.38;;
75320;SDS011;63920;52.130;5.584;2022-10-31T12:41:44;43.63;;;24.67;;
75320;SDS011;63920;52.130;5.584;2022-10-31T12:53:00;46.65;;;27.83;;
75320;SDS011;63920;52.130;5.584;2022-10-31T12:55:59;52.58;;;29.80;;
75320;SDS011;63920;52.130;5.584;2022-10-31T13:01:06;48.00;;;29.70;;
75320;SDS011;63920;52.130;5.584;2022-10-31T13:03:39;50.22;;;30.08;;
75320;SDS011;63920;52.130;5.584;2022-10-31T13:06:19;55.67;;;31.05;;
75320;SDS011;63920;52.130;5.584;2022-10-31T13:08:49;48.85;;;28.08;;
75320;SDS011;63920;52.130;5.584;2022-10-31T13:11:16;46.97;;;29.08;;
75320;SDS011;63920;52.130;5.584;2022-10-31T13:16:30;49.47;;;27.70;;
75320;SDS011;63920;52.130;5.584;2022-10-31T13:19:30;46.25;;;27.25;;
75320;SDS011;63920;52.130;5.584;2022-10-31T13:22:17;47.92;;;26.85;;
75320;SDS011;63920;52.130;5.584;2022-10-31T13:24:55;49.75;;;27.73;;
75320;SDS011;63920;52.130;5.584;2022-10-31T13:30:28;45.80;;;26.90;;
75320;SDS011;63920;52.130;5.584;2022-10-31T13:32:59;48.80;;;26.48;;
75320;SDS011;63920;52.130;5.584;2022-10-31T13:35:39;40.08;;;24.83;;
75320;SDS011;63920;52.130;5.584;2022-10-31T13:38:12;47.05;;;27.48;;
75320;SDS011;63920;52.130;5.584;2022-10-31T13:43:30;42.60;;;25.33;;
75320;SDS011;63920;52.130;5.584;2022-10-31T13:46:23;40.53;;;26.48;;
75320;SDS011;63920;52.130;5.584;2022-10-31T13:48:58;43.55;;;25.50;;
75320;SDS011;63920;52.130;5.584;2022-10-31T13:51:25;47.70;;;26.15;;
75320;SDS011;63920;52.130;5.584;2022-10-31T13:53:56;43.75;;;25.20;;
75320;SDS011;63920;52.130;5.584;2022-10-31T13:56:26;46.13;;;25.38;;
75320;SDS011;63920;52.130;5.584;2022-10-31T14:01:34;45.83;;;26.33;;
75320;SDS011;63920;52.130;5.584;2022-10-31T14:06:43;49.63;;;27.63;;
75320;SDS011;63920;52.130;5.584;2022-10-31T14:09:27;47.83;;;27.25;;
75320;SDS011;63920;52.130;5.584;2022-10-31T14:12:02;57.40;;;27.85;;
75320;SDS011;63920;52.130;5.584;2022-10-31T14:14:34;46.30;;;26.50;;
75320;SDS011;63920;52.130;5.584;2022-10-31T14:17:12;44.80;;;26.70;;
75320;SDS011;63920;52.130;5.584;2022-10-31T14:19:43;47.83;;;27.60;;
75320;SDS011;63920;52.130;5.584;2022-10-31T14:22:28;44.47;;;25.67;;
75320;SDS011;63920;52.130;5.584;2022-10-31T14:24:58;46.92;;;25.80;;
75320;SDS011;63920;52.130;5.584;2022-10-31T14:29:52;46.80;;;25.92;;
75320;SDS011;63920;52.130;5.584;2022-10-31T14:32:22;45.25;;;25.40;;
75320;SDS011;63920;52.130;5.584;2022-10-31T14:47:46;38.00;;;22.85;;
75320;SDS011;63920;52.130;5.584;2022-10-31T14:52:51;38.65;;;22.60;;
75320;SDS011;63920;52.130;5.584;2022-10-31T14:55:19;45.97;;;24.58;;
75320;SDS011;63920;52.130;5.584;2022-10-31T14:57:54;43.08;;;24.70;;
75320;SDS011;63920;52.130;5.584;2022-10-31T15:00:24;46.72;;;24.83;;
75320;SDS011;63920;52.130;5.584;2022-10-31T15:05:35;40.83;;;22.13;;
75320;SDS011;63920;52.130;5.584;2022-10-31T15:13:57;36.15;;;21.65;;
75320;SDS011;63920;52.130;5.584;2022-10-31T15:16:30;39.08;;;22.10;;
75320;SDS011;63920;52.130;5.584;2022-10-31T15:19:00;33.17;;;20.65;;
75320;SDS011;63920;52.130;5.584;2022-10-31T15:21:29;32.35;;;20.52;;
75320;SDS011;63920;52.130;5.584;2022-10-31T15:23:59;37.95;;;21.98;;
75320;SDS011;63920;52.130;5.584;2022-10-31T15:26:32;32.60;;;19.55;;
75320;SDS011;63920;52.130;5.584;2022-10-31T15:29:10;36.50;;;20.45;;
75320;SDS011;63920;52.130;5.584;2022-10-31T15:34:29;37.92;;;19.98;;
75320;SDS011;63920;52.130;5.584;2022-10-31T15:37:03;39.47;;;21.40;;
75320;SDS011;63920;52.130;5.584;2022-10-31T15:39:28;28.52;;;19.25;;
75320;SDS011;63920;52.130;5.584;2022-10-31T15:41:55;41.38;;;21.58;;
75320;SDS011;63920;52.130;5.584;2022-10-31T15:47:06;42.85;;;21.38;;
75320;SDS011;63920;52.130;5.584;2022-10-31T15:49:41;36.15;;;20.90;;
75320;SDS011;63920;52.130;5.584;2022-10-31T15:54:57;33.72;;;20.17;;
75320;SDS011;63920;52.130;5.584;2022-10-31T15:57:25;33.08;;;21.40;;
75320;SDS011;63920;52.130;5.584;2022-10-31T15:59:51;36.47;;;20.48;;
75320;SDS011;63920;52.130;5.584;2022-10-31T16:02:19;34.35;;;20.13;;
75320;SDS011;63920;52.130;5.584;2022-10-31T16:04:50;33.55;;;20.33;;
75320;SDS011;63920;52.130;5.584;2022-10-31T16:07:22;45.35;;;24.05;;
75320;SDS011;63920;52.130;5.584;2022-10-31T16:09:59;35.13;;;21.48;;
75320;SDS011;63920;52.130;5.584;2022-10-31T16:12:31;38.03;;;22.25;;
75320;SDS011;63920;52.130;5.584;2022-10-31T16:15:00;43.83;;;22.40;;
75320;SDS011;63920;52.130;5.584;2022-10-31T16:17:26;43.47;;;22.65;;
75320;SDS011;63920;52.130;5.584;2022-10-31T16:19:57;39.85;;;22.90;;
75320;SDS011;63920;52.130;5.584;2022-10-31T16:24:59;40.97;;;23.40;;
75320;SDS011;63920;52.130;5.584;2022-10-31T16:27:50;43.35;;;23.80;;
75320;SDS011;63920;52.130;5.584;2022-10-31T16:32:58;39.63;;;22.48;;
75320;SDS011;63920;52.130;5.584;2022-10-31T16:37:57;41.33;;;23.77;;
75320;SDS011;63920;52.130;5.584;2022-10-31T16:40:22;36.10;;;21.13;;
75320;SDS011;63920;52.130;5.584;2022-10-31T16:42:48;37.92;;;22.17;;
75320;SDS011;63920;52.130;5.584;2022-10-31T16:45:16;38.20;;;22.63;;
75320;SDS011;63920;52.130;5.584;2022-10-31T16:47:46;41.97;;;23.98;;
75320;SDS011;63920;52.130;5.584;2022-10-31T16:50:14;42.03;;;23.98;;
75320;SDS011;63920;52.130;5.584;2022-10-31T16:52:42;40.05;;;23.85;;
75320;SDS011;63920;52.130;5.584;2022-10-31T16:55:13;43.03;;;23.20;;
75320;SDS011;63920;52.130;5.584;2022-10-31T16:57:40;46.85;;;27.20;;
75320;SDS011;63920;52.130;5.584;2022-10-31T17:00:12;47.42;;;25.67;;
75320;SDS011;63920;52.130;5.584;2022-10-31T17:02:49;41.83;;;25.55;;
75320;SDS011;63920;52.130;5.584;2022-10-31T17:05:17;49.72;;;26.40;;
75320;SDS011;63920;52.130;5.584;2022-10-31T17:07:43;43.03;;;26.80;;
75320;SDS011;63920;52.130;5.584;2022-10-31T17:10:10;39.05;;;23.05;;
75320;SDS011;63920;52.130;5.584;2022-10-31T17:12:38;45.92;;;24.27;;
75320;SDS011;63920;52.130;5.584;2022-10-31T17:15:09;43.10;;;24.98;;